Time;durP1;ratioP1;P1;durP2;ratioP2;P2;SDS_P1;SDS_P2;PMS_P1;PMS_P2;Temp;Humidity;BMP_temperature;BMP_pressure;BME280_temperature;BME280_humidity;BME280_pressure;Samples;Min_cycle;Max_cycle;Signal;HPM_P1;HPM_P2
2020/12/25 00:05:20;;;;;;;1999.90;999.90;;;;;;;7.14;73.79;100775.31;15722630;28;20142;-53
2020/12/25 00:12:53;;;;;;;1999.90;999.90;;;;;;;7.17;74.29;100780.22;15709346;28;20045;-52
2020/12/25 00:20:27;;;;;;;1999.90;999.90;;;;;;;7.46;73.59;100798.50;15676934;28;20048;-50
2020/12/25 00:27:59;;;;;;;1999.90;999.90;;;;;;;7.36;73.80;100804.28;15711206;28;20048;-51
2020/12/25 00:35:33;;;;;;;1999.90;999.90;;;;;;;7.15;74.39;100807.47;15682259;28;20049;-51
2020/12/25 00:43:06;;;;;;;1999.90;999.90;;;;;;;7.20;73.96;100812.09;15699646;28;20117;-52
2020/12/25 00:50:39;;;;;;;1999.90;999.90;;;;;;;7.02;75.03;100824.13;15713225;28;20430;-52
2020/12/25 00:58:12;;;;;;;;;;;;;;;7.16;74.61;100849.91;15710125;28;20461;-53
2020/12/25 01:05:46;;;;;;;1999.90;999.90;;;;;;;6.80;75.37;100855.31;15723026;28;19920;-55
2020/12/25 01:13:19;;;;;;;;;;;;;;;7.08;74.17;100870.88;15672626;28;20057;-52
2020/12/25 01:20:52;;;;;;;1999.90;999.90;;;;;;;6.81;75.61;100874.41;15715974;28;20024;-56
2020/12/25 01:28:25;;;;;;;1999.90;999.90;;;;;;;6.83;75.54;100882.44;15711133;28;20059;-51
2020/12/25 01:35:59;;;;;;;1999.90;999.90;;;;;;;6.76;75.64;100885.59;15697365;28;20040;-53
2020/12/25 01:43:31;;;;;;;;;;;;;;;7.08;74.03;100893.06;15698521;28;20101;-53
2020/12/25 01:51:05;;;;;;;1999.90;999.90;;;;;;;6.99;74.52;100894.09;15718389;28;20330;-51
2020/12/25 01:58:39;;;;;;;1999.90;999.90;;;;;;;6.88;74.59;100902.59;15681596;28;20049;-51
2020/12/25 02:06:12;;;;;;;1999.90;999.90;;;;;;;6.94;74.05;100903.31;15709923;28;20136;-50
2020/12/25 02:13:45;;;;;;;;;;;;;;;6.86;73.67;100915.09;15696014;28;20136;-55
2020/12/25 02:21:18;;;;;;;1999.90;999.90;;;;;;;6.72;72.88;100928.09;15729256;28;19921;-52
2020/12/25 02:28:51;;;;;;;1999.90;999.90;;;;;;;6.66;73.64;100922.63;15706754;28;20119;-52
2020/12/25 02:36:25;;;;;;;1999.90;999.90;;;;;;;6.30;72.75;100925.13;15693936;28;20049;-50
2020/12/25 02:43:58;;;;;;;1999.90;999.90;;;;;;;6.52;72.02;100930.06;15705083;28;20053;-54
2020/12/25 02:51:32;;;;;;;1999.90;999.90;;;;;;;6.16;70.70;100938.09;15715553;28;20060;-52
2020/12/25 02:59:04;;;;;;;1999.90;999.90;;;;;;;6.19;70.39;100943.03;15676604;28;20107;-53
2020/12/25 03:06:38;;;;;;;1999.90;999.90;;;;;;;6.18;69.57;100954.41;15684319;28;20064;-51
2020/12/25 03:14:10;;;;;;;1999.90;999.90;;;;;;;6.20;69.64;100955.75;15714775;28;20045;-54
2020/12/25 03:21:44;;;;;;;1999.90;999.90;;;;;;;6.17;69.81;100963.84;15718844;22;20101;-60
2020/12/25 03:29:17;;;;;;;;;;;;;;;6.40;68.58;100978.78;15810966;28;20082;-56
2020/12/25 03:36:50;;;;;;;1999.90;999.90;;;;;;;6.38;68.72;100967.19;15772262;28;19928;-55
2020/12/25 03:44:23;;;;;;;1999.90;999.90;;;;;;;6.55;68.40;100975.78;15774710;28;20088;-54
2020/12/25 03:51:56;;;;;;;1999.90;999.90;;;;;;;6.44;69.29;100980.66;15793875;28;20078;-59
2020/12/25 03:59:29;;;;;;;1999.90;999.90;;;;;;;6.42;68.68;100990.38;15793576;28;20059;-56
2020/12/25 04:07:02;;;;;;;1999.90;999.90;;;;;;;6.55;68.00;101000.72;15757039;28;20049;-57
2020/12/25 04:14:35;;;;;;;1999.90;999.90;;;;;;;6.40;67.77;101012.03;15726654;28;20037;-57
2020/12/25 04:22:09;;;;;;;1999.90;999.90;;;;;;;6.40;69.83;101012.03;15792090;28;20044;-58
2020/12/25 04:29:41;;;;;;;1999.90;999.90;;;;;;;6.12;70.80;101031.22;15750399;28;20044;-56
2020/12/25 04:37:15;;;;;;;1999.90;999.90;;;;;;;6.37;69.43;101043.97;15753355;28;20047;-56
2020/12/25 04:44:48;;;;;;;1999.90;999.90;;;;;;;6.23;69.96;101048.56;15756273;28;20053;-57
2020/12/25 04:52:22;;;;;;;1999.90;999.90;;;;;;;6.10;70.58;101054.81;15780415;28;20044;-56
2020/12/25 04:59:55;;;;;;;1999.90;999.90;;;;;;;6.08;71.08;101066.19;15767694;28;20397;-53
2020/12/25 05:07:28;;;;;;;1999.90;999.90;;;;;;;5.84;71.47;101066.16;15766924;28;20086;-57
2020/12/25 05:15:08;;;;;;;1999.90;999.90;;;;;;;6.04;70.85;101081.75;15775226;28;20054;-58
2020/12/25 05:22:41;;;;;;;1999.90;999.90;;;;;;;5.86;71.46;101093.56;15769905;28;20037;-57
2020/12/25 05:30:14;;;;;;;1999.90;999.90;;;;;;;5.73;71.38;101098.66;15766225;28;20085;-57
2020/12/25 05:37:48;;;;;;;1999.90;999.90;;;;;;;5.55;71.46;101109.63;15783373;28;20044;-55
2020/12/25 05:45:22;;;;;;;1999.90;999.90;;;;;;;5.74;71.68;101114.16;15768882;28;20352;-57
2020/12/25 05:52:56;;;;;;;1999.90;999.90;;;;;;;5.75;70.79;101132.44;15768435;28;20048;-55
2020/12/25 06:00:30;;;;;;;1999.90;999.90;;;;;;;5.43;72.06;101141.28;15794580;28;20044;-54
2020/12/25 06:08:15;;;;;;;1999.90;999.90;;;;;;;5.60;72.38;101153.88;15733264;28;20036;-57
2020/12/25 06:15:51;;;;;;;1999.90;999.90;;;;;;;5.49;72.93;101164.19;15763503;28;20051;-57
2020/12/25 06:23:28;;;;;;;1999.90;999.90;;;;;;;5.40;72.87;101169.50;15781337;28;20050;-56
2020/12/25 06:31:00;;;;;;;1999.90;999.90;;;;;;;5.41;73.32;101178.63;15796265;28;20116;-54
2020/12/25 06:38:42;;;;;;;1999.90;999.90;;;;;;;5.69;72.95;101201.97;15754337;28;20040;-55
2020/12/25 06:46:28;;;;;;;1999.90;999.90;;;;;;;5.49;72.52;101192.69;15766062;28;20048;-57
2020/12/25 06:54:03;;;;;;;1999.90;999.90;;;;;;;5.67;72.47;101206.97;15765780;28;20062;-57
2020/12/25 07:01:38;;;;;;;1999.90;999.90;;;;;;;5.40;73.25;101207.44;15789904;28;20497;-56
2020/12/25 07:09:12;;;;;;;1999.90;999.90;;;;;;;5.39;73.42;101222.38;15781974;28;20043;-54
2020/12/25 07:16:45;;;;;;;1999.90;999.90;;;;;;;5.43;72.90;101227.09;15787040;28;20048;-56
2020/12/25 07:24:19;;;;;;;1999.90;999.90;;;;;;;5.49;73.09;101236.16;15792303;28;20112;-55
2020/12/25 07:31:53;;;;;;;;;;;;;;;5.37;71.34;101241.22;15755579;28;20474;-54
2020/12/25 07:39:29;;;;;;;1999.90;999.90;;;;;;;5.35;71.48;101255.34;15709991;28;19927;-58
2020/12/25 07:47:02;;;;;;;1999.90;999.90;;;;;;;5.07;72.50;101275.41;15803540;28;20503;-57
2020/12/25 07:54:35;;;;;;;1999.90;999.90;;;;;;;5.24;72.00;101286.13;15785877;28;20093;-56
2020/12/25 08:02:11;;;;;;;;;;;;;;;5.33;72.73;101284.44;15766708;28;20040;-56
2020/12/25 08:09:46;;;;;;;1999.90;999.90;;;;;;;5.38;72.61;101295.47;15763840;28;20296;-53
2020/12/25 08:17:19;;;;;;;1999.90;999.90;;;;;;;5.40;71.79;101307.91;15802909;28;20461;-56
2020/12/25 08:24:55;;;;;;;1999.90;999.90;;;;;;;5.51;71.30;101311.44;15784340;28;20495;-54
2020/12/25 08:32:30;;;;;;;1999.90;999.90;;;;;;;5.49;72.05;101319.22;15774853;28;20094;-55
2020/12/25 08:40:14;;;;;;;1999.90;999.90;;;;;;;5.74;70.70;101329.34;15810859;28;20059;-53
2020/12/25 08:48:05;;;;;;;1999.90;999.90;;;;;;;5.40;71.91;101326.44;15787131;28;20044;-58
2020/12/25 08:55:38;;;;;;;1999.90;999.90;;;;;;;5.86;70.62;101337.28;15720926;28;20087;-54
2020/12/25 09:03:11;;;;;;;1999.90;999.90;;;;;;;6.01;70.07;101349.13;15765157;28;20036;-55
2020/12/25 09:10:44;;;;;;;1999.90;999.90;;;;;;;6.07;69.84;101359.06;15779388;28;20048;-56
2020/12/25 09:18:17;;;;;;;1999.90;999.90;;;;;;;6.09;69.05;101364.31;15759025;28;20041;-59
2020/12/25 09:25:51;;;;;;;1999.90;999.90;;;;;;;6.49;67.62;101365.97;15775432;22;20043;-72
2020/12/25 09:33:24;;;;;;;1999.90;999.90;;;;;;;6.43;67.88;101369.88;15790693;22;20358;-57
2020/12/25 09:40:58;;;;;;;1999.90;999.90;;;;;;;6.66;66.97;101374.66;15769862;28;20119;-57
2020/12/25 09:48:31;;;;;;;1999.90;999.90;;;;;;;6.66;66.50;101383.00;15763493;28;20036;-57
2020/12/25 09:56:04;;;;;;;1999.90;999.90;;;;;;;6.82;65.98;101377.31;15741888;28;20449;-57
2020/12/25 10:03:37;;;;;;;1999.90;999.90;;;;;;;6.62;66.30;101398.56;15724756;28;20361;-55
2020/12/25 10:11:10;;;;;;;1999.90;999.90;;;;;;;6.68;65.50;101387.44;15756525;28;20048;-56
2020/12/25 10:18:43;;;;;;;1999.90;999.90;;;;;;;7.11;63.83;101391.19;15732450;28;20504;-56
2020/12/25 10:26:16;;;;;;;1999.90;999.90;;;;;;;6.78;64.92;101390.13;15737665;28;20044;-58
2020/12/25 10:33:49;;;;;;;1999.90;999.90;;;;;;;7.13;64.43;101395.31;15717050;28;20527;-56
2020/12/25 10:41:29;;;;;;;1999.90;999.90;;;;;;;7.14;64.66;101410.84;15731561;28;20048;-58
2020/12/25 10:49:02;;;;;;;1999.90;999.90;;;;;;;6.74;65.17;101412.06;15731686;28;20037;-54
2020/12/25 10:56:35;;;;;;;1999.90;999.90;;;;;;;6.77;65.19;101418.97;15697212;28;20074;-56
2020/12/25 11:04:08;;;;;;;1999.90;999.90;;;;;;;6.76;65.32;101418.13;15738594;28;20146;-55
2020/12/25 11:11:42;;;;;;;1999.90;999.90;;;;;;;6.73;64.42;101423.44;15733184;28;20494;-55
2020/12/25 11:19:16;;;;;;;1999.90;999.90;;;;;;;6.44;65.69;101421.44;15717876;28;20400;-57
2020/12/25 11:26:49;;;;;;;1999.90;999.90;;;;;;;6.60;64.43;101430.50;15714747;28;20049;-55
2020/12/25 11:34:22;;;;;;;1999.90;999.90;;;;;;;6.43;65.37;101427.28;15732198;28;20052;-54
2020/12/25 11:41:56;;;;;;;1999.90;999.90;;;;;;;6.35;66.12;101437.84;15731980;28;20052;-56
2020/12/25 11:49:29;;;;;;;1999.90;999.90;;;;;;;6.49;65.90;101440.00;15724581;28;20064;-58
2020/12/25 11:57:02;;;;;;;1999.90;999.90;;;;;;;6.24;65.33;101439.03;15717635;28;20074;-56
2020/12/25 12:04:36;;;;;;;;;;;;;;;6.26;64.98;101436.81;15741717;28;20059;-56
2020/12/25 12:12:10;;;;;;;;;;;;;;;6.31;64.86;101436.78;15722508;28;19959;-56
2020/12/25 12:19:42;;;;;;;1999.90;999.90;;;;;;;6.35;64.44;101431.47;15749868;28;19956;-55
2020/12/25 12:27:16;;;;;;;1999.90;999.90;;;;;;;6.18;64.63;101439.38;15761319;28;20294;-50
2020/12/25 12:34:48;;;;;;;1999.90;999.90;;;;;;;6.43;62.76;101441.97;15741516;28;20233;-54
2020/12/25 12:42:22;;;;;;;1999.90;999.90;;;;;;;6.40;62.39;101442.56;15737462;28;20070;-57
2020/12/25 12:49:55;;;;;;;1999.90;999.90;;;;;;;6.42;60.17;101451.41;15757839;28;20048;-57
2020/12/25 12:57:28;;;;;;;1999.90;999.90;;;;;;;5.77;64.92;101453.38;15752345;28;20080;-56
2020/12/25 13:05:01;;;;;;;1999.90;999.90;;;;;;;5.75;68.03;101447.31;15723211;28;20559;-58
2020/12/25 13:12:35;;;;;;;1999.90;999.90;;;;;;;6.05;67.55;101458.28;15728764;28;20155;-57
2020/12/25 13:20:07;;;;;;;1999.90;999.90;;;;;;;6.18;65.90;101459.59;15722334;28;20061;-55
2020/12/25 13:27:41;;;;;;;1999.90;999.90;;;;;;;5.99;66.47;101451.09;15749281;28;20050;-56
2020/12/25 13:35:13;;;;;;;1999.90;999.90;;;;;;;6.12;66.13;101449.63;15704426;28;20044;-57
2020/12/25 13:42:47;;;;;;;1999.90;999.90;;;;;;;5.88;67.17;101462.47;15727650;28;20354;-56
2020/12/25 13:50:19;;;;;;;1999.90;999.90;;;;;;;5.87;66.76;101469.97;15744171;28;20048;-57
2020/12/25 13:57:53;;;;;;;1999.90;999.90;;;;;;;5.87;66.40;101469.13;15737497;28;20094;-56
2020/12/25 14:05:26;;;;;;;1999.90;999.90;;;;;;;5.89;66.78;101476.03;15737829;28;20055;-58
2020/12/25 14:12:59;;;;;;;1999.90;999.90;;;;;;;5.99;66.92;101480.75;15720434;28;20068;-57
2020/12/25 14:20:32;;;;;;;1999.90;999.90;;;;;;;5.63;67.39;101467.00;15738005;28;20048;-58
2020/12/25 14:28:06;;;;;;;1999.90;999.90;;;;;;;5.47;67.08;101479.22;15737858;28;20089;-58
2020/12/25 14:35:40;;;;;;;1999.90;999.90;;;;;;;5.65;66.93;101480.56;15737306;28;20056;-55
2020/12/25 14:43:13;;;;;;;1999.90;999.90;;;;;;;5.63;67.24;101496.66;15736909;28;20072;-58
2020/12/25 14:50:46;;;;;;;1999.90;999.90;;;;;;;5.64;67.12;101499.13;15736820;28;20413;-59
2020/12/25 14:58:19;;;;;;;1999.90;999.90;;;;;;;5.40;67.77;101512.72;15736418;28;20132;-58
2020/12/25 15:05:53;;;;;;;1999.90;999.90;;;;;;;5.37;67.69;101513.28;15735844;28;20056;-58
2020/12/25 15:13:26;;;;;;;1999.90;999.90;;;;;;;5.01;68.33;101511.66;15718285;28;20053;-58
2020/12/25 15:20:59;;;;;;;1999.90;999.90;;;;;;;5.21;67.89;101536.56;15724416;28;20059;-59
2020/12/25 15:28:33;;;;;;;1999.90;999.90;;;;;;;5.15;68.88;101534.91;15747601;28;20044;-58
2020/12/25 15:36:07;;;;;;;1999.90;999.90;;;;;;;4.75;69.41;101538.44;15747458;28;20099;-58
2020/12/25 15:43:41;;;;;;;1999.90;999.90;;;;;;;5.23;68.18;101556.47;15729500;28;20044;-57
2020/12/25 15:51:14;;;;;;;1999.90;999.90;;;;;;;5.25;68.68;101551.50;15747176;28;20123;-57
2020/12/25 15:58:48;;;;;;;1999.90;999.90;;;;;;;5.28;68.43;101552.88;15729388;28;20394;-58
2020/12/25 16:06:20;;;;;;;1999.90;999.90;;;;;;;5.50;68.13;101562.53;15745907;28;20056;-58
2020/12/25 16:13:54;;;;;;;1999.90;999.90;;;;;;;5.48;68.27;101567.53;15728577;28;20049;-58
2020/12/25 16:21:27;;;;;;;1999.90;999.90;;;;;;;5.33;68.25;101573.09;15727562;28;20102;-58
2020/12/25 16:29:01;;;;;;;1999.90;999.90;;;;;;;5.48;67.79;101580.53;15725095;28;20028;-58
2020/12/25 16:36:34;;;;;;;1999.90;999.90;;;;;;;5.19;68.05;101581.09;15742121;28;20417;-59
2020/12/25 16:44:07;;;;;;;1999.90;999.90;;;;;;;5.54;67.46;101581.38;15725302;28;20044;-57
2020/12/25 16:51:41;;;;;;;1999.90;999.90;;;;;;;5.68;67.09;101588.81;15738952;28;20123;-56
2020/12/25 16:59:15;;;;;;;1999.90;999.90;;;;;;;5.59;67.61;101584.13;15738215;28;20481;-59
2020/12/25 17:06:48;;;;;;;;;;;;;;;5.63;67.10;101610.16;15704156;28;20040;-60
2020/12/25 17:14:22;;;;;;;1999.90;999.90;;;;;;;5.55;67.63;101613.50;15740195;28;20245;-58
2020/12/25 17:21:54;;;;;;;1999.90;999.90;;;;;;;5.19;69.23;101606.00;15739852;28;20044;-57
2020/12/25 17:29:29;;;;;;;1999.90;999.90;;;;;;;5.27;68.94;101612.09;15702355;28;20102;-58
2020/12/25 17:37:02;;;;;;;1999.90;999.90;;;;;;;5.01;71.27;101606.53;15720835;28;20083;-59
2020/12/25 17:44:35;;;;;;;1999.90;999.90;;;;;;;5.31;70.76;101621.50;15738014;28;20074;-57
2020/12/25 17:52:08;;;;;;;1999.90;999.90;;;;;;;5.24;71.51;101619.03;15738713;28;20123;-58
2020/12/25 17:59:41;;;;;;;1999.90;999.90;;;;;;;5.32;70.30;101618.47;15737932;28;20053;-56
2020/12/25 18:07:15;;;;;;;1999.90;999.90;;;;;;;5.22;71.17;101605.47;15719177;28;20093;-54
2020/12/25 18:14:49;;;;;;;1999.90;999.90;;;;;;;5.06;71.11;101603.78;15737176;28;20487;-57
2020/12/25 18:22:21;;;;;;;1999.90;999.90;;;;;;;5.16;70.77;101600.19;15719685;28;20101;-58
2020/12/25 18:29:56;;;;;;;1999.90;999.90;;;;;;;5.35;70.39;101614.31;15736744;28;20149;-58
2020/12/25 18:37:28;;;;;;;1999.90;999.90;;;;;;;4.80;71.50;101613.97;15736925;28;20490;-58
2020/12/25 18:45:02;;;;;;;1999.90;999.90;;;;;;;4.84;71.28;101614.25;15717672;28;20076;-58
2020/12/25 18:52:38;;;;;;;1999.90;999.90;;;;;;;4.89;71.28;101606.78;15734353;28;20052;-60
2020/12/25 19:00:14;;;;;;;1999.90;999.90;;;;;;;4.93;70.78;101612.59;15734411;28;20445;-58
2020/12/25 19:07:46;;;;;;;1999.90;999.90;;;;;;;4.76;70.42;101620.31;15733859;28;20051;-59
2020/12/25 19:15:20;;;;;;;1999.90;999.90;;;;;;;5.00;69.67;101615.91;15734182;28;20118;-58
2020/12/25 19:22:52;;;;;;;1999.90;999.90;;;;;;;4.70;69.57;101608.41;15715890;28;20291;-59
2020/12/25 19:30:26;;;;;;;1999.90;999.90;;;;;;;4.90;69.23;101614.00;15733983;28;20041;-61
2020/12/25 19:37:59;;;;;;;1999.90;999.90;;;;;;;4.58;69.28;101616.91;15733825;28;20057;-60
2020/12/25 19:45:32;;;;;;;1999.90;999.90;;;;;;;4.66;69.44;101620.28;15716195;28;20049;-59
2020/12/25 19:53:05;;;;;;;1999.90;999.90;;;;;;;4.45;69.29;101633.19;15715598;28;20040;-60
2020/12/25 20:00:39;;;;;;;1999.90;999.90;;;;;;;4.42;68.91;101637.31;15733048;28;20489;-56
2020/12/25 20:08:12;;;;;;;1999.90;999.90;;;;;;;4.25;68.70;101644.97;15740416;28;20102;-59
2020/12/25 20:15:46;;;;;;;1999.90;999.90;;;;;;;4.28;68.82;101658.28;15744276;28;20087;-57
2020/12/25 20:23:19;;;;;;;;;;;;;;;4.15;69.34;101664.25;15743648;28;20052;-59
2020/12/25 20:30:53;;;;;;;1999.90;999.90;;;;;;;4.31;69.39;101664.06;15743211;28;19989;-59
2020/12/25 20:38:25;;;;;;;1999.90;999.90;;;;;;;4.22;69.16;101673.13;15742384;28;20668;-58
2020/12/25 20:46:06;;;;;;;1999.90;999.90;;;;;;;4.10;69.08;101689.09;15708019;28;20346;-60
2020/12/25 20:53:40;;;;;;;1999.90;999.90;;;;;;;3.97;68.79;101688.47;15700066;28;20045;-59
2020/12/25 21:01:14;;;;;;;1999.90;999.90;;;;;;;4.15;68.98;101703.75;15741412;28;20101;-58
2020/12/25 21:08:46;;;;;;;1999.90;999.90;;;;;;;3.70;69.91;101698.72;15740501;28;20055;-59
2020/12/25 21:16:22;;;;;;;1999.90;999.90;;;;;;;3.72;70.08;101704.81;15739344;28;20048;-59
2020/12/25 21:23:56;;;;;;;1999.90;999.90;;;;;;;3.75;69.96;101698.75;15721272;28;20127;-54
2020/12/25 21:31:30;;;;;;;1999.90;999.90;;;;;;;3.63;70.17;101684.31;15718876;28;20044;-59
2020/12/25 21:39:04;;;;;;;1999.90;999.90;;;;;;;4.04;68.79;101672.47;15720722;28;20055;-54
2020/12/25 21:46:38;;;;;;;1999.90;999.90;;;;;;;4.01;68.71;101675.78;15738890;28;20435;-55
2020/12/25 21:54:12;;;;;;;1999.90;999.90;;;;;;;3.85;68.95;101682.28;15738024;28;20544;-54
2020/12/25 22:01:46;;;;;;;1999.90;999.90;;;;;;;4.03;67.86;101684.63;15738222;28;20049;-58
2020/12/25 22:09:19;;;;;;;;;;;;;;;3.97;67.75;101671.88;15738050;28;20068;-57
2020/12/25 22:16:52;;;;;;;1999.90;999.90;;;;;;;4.00;67.86;101670.53;15737674;28;19920;-56
2020/12/25 22:24:25;;;;;;;1999.90;999.90;;;;;;;3.67;68.54;101689.06;15737142;28;20123;-55
2020/12/25 22:31:58;;;;;;;1999.90;999.90;;;;;;;3.90;68.36;101700.81;15719561;28;20064;-57
2020/12/25 22:39:31;;;;;;;1999.90;999.90;;;;;;;3.79;68.11;101693.56;15736748;28;20135;-57
2020/12/25 22:47:08;;;;;;;1999.90;999.90;;;;;;;3.82;68.67;101682.81;15719019;28;20040;-58
2020/12/25 22:54:41;;;;;;;1999.90;999.90;;;;;;;3.59;69.15;101680.41;15735445;28;20071;-55
2020/12/25 23:02:15;;;;;;;1999.90;999.90;;;;;;;3.72;68.67;101685.50;15717788;28;20059;-57
2020/12/25 23:09:47;;;;;;;1999.90;999.90;;;;;;;3.95;68.32;101682.34;15735952;28;20130;-54
2020/12/25 23:17:23;;;;;;;1999.90;999.90;;;;;;;4.16;67.39;101674.19;15735227;28;20048;-59
2020/12/25 23:24:57;;;;;;;1999.90;999.90;;;;;;;4.09;67.26;101668.09;15717066;28;20596;-58
2020/12/25 23:32:31;;;;;;;1999.90;999.90;;;;;;;3.82;68.24;101671.75;15701710;28;20526;-58
2020/12/25 23:40:04;;;;;;;1999.90;999.90;;;;;;;3.94;67.68;101663.28;15739301;28;20045;-58
2020/12/25 23:47:37;;;;;;;1999.90;999.90;;;;;;;4.10;67.14;101651.25;15729397;28;20576;-58
2020/12/25 23:55:10;;;;;;;1999.90;999.90;;;;;;;4.17;67.32;101659.28;15745499;28;20049;-58
